Terminal Aerodrome Forecast
Issued by NWS

Home | Current Version | Previous Version | Text Only | Print | Product List | Glossary Off
Versions: 1 2 3 4 5 6 7 8 9 10 11 12

423
FTUS45 KGGW 221135
TAFSDY
TAF
KSDY 221135Z 2212/2312 21007KT P6SM BKN070 WS020/27035KT
     FM221800 29016KT P6SM FEW140
     FM230100 VRB04KT P6SM SCT040
     FM230800 VRB04KT 5SM BR SCT030 WS020/28035KT=

USA.gov is the U.S. government's official web portal to all federal, state and local government web resources and services.